createdAt,value
2018-12-19T00:04:27.282Z,18.44
2018-12-19T00:09:36.641Z,18.33
2018-12-19T00:14:46.294Z,18.31
2018-12-19T00:19:55.740Z,17.93
2018-12-19T00:25:05.324Z,18.02
2018-12-19T00:30:13.325Z,18.00
2018-12-19T00:35:22.942Z,18.39
2018-12-19T00:40:32.412Z,18.05
2018-12-19T00:45:40.441Z,18.14
2018-12-19T00:50:49.791Z,18.27
2018-12-19T00:55:59.469Z,17.70
2018-12-19T01:01:07.311Z,18.16
2018-12-19T01:06:16.819Z,17.84
2018-12-19T01:11:26.180Z,17.91
2018-12-19T01:16:35.764Z,17.29
2018-12-19T01:21:45.230Z,17.69
2018-12-19T01:26:53.490Z,17.54
2018-12-19T01:32:02.790Z,17.45
2018-12-19T01:37:12.397Z,17.09
2018-12-19T01:42:21.671Z,17.17
2018-12-19T01:47:31.496Z,17.15
2018-12-19T01:52:40.747Z,17.33
2018-12-19T01:57:50.387Z,17.21
2018-12-19T02:02:59.733Z,17.63
2018-12-19T02:08:09.377Z,17.54
2018-12-19T02:13:18.773Z,16.98
2018-12-19T02:18:28.317Z,17.35
2018-12-19T02:23:37.828Z,17.35
2018-12-19T02:28:47.335Z,17.06
2018-12-19T02:33:56.708Z,17.42
2018-12-19T02:39:06.415Z,17.34
2018-12-19T02:44:15.711Z,16.68
2018-12-19T02:49:25.233Z,17.12
2018-12-19T02:54:34.507Z,17.49
2018-12-19T02:59:45.093Z,17.33
2018-12-19T03:04:44.297Z,17.03
2018-12-19T03:09:54.129Z,16.61
2018-12-19T03:15:01.946Z,16.71
2018-12-19T03:20:11.495Z,16.94
2018-12-19T03:25:20.986Z,17.15
2018-12-19T03:30:30.883Z,16.58
2018-12-19T03:35:40.211Z,16.50
2018-12-19T03:40:49.814Z,16.31
2018-12-19T03:45:59.318Z,16.80
2018-12-19T03:51:08.810Z,16.46
2018-12-19T03:56:18.115Z,16.63
2018-12-19T04:01:27.629Z,16.25
2018-12-19T04:06:37.172Z,16.75
2018-12-19T04:11:47.009Z,16.23
2018-12-19T04:16:56.192Z,16.24
2018-12-19T04:22:06.021Z,16.29
2018-12-19T04:27:15.381Z,15.53
2018-12-19T04:32:25.271Z,15.45
2018-12-19T04:37:34.620Z,15.93
2018-12-19T04:42:44.191Z,15.70
2018-12-19T04:47:53.608Z,15.98
2018-12-19T04:53:03.373Z,15.13
2018-12-19T04:58:12.693Z,15.16
2018-12-19T05:03:22.346Z,15.12
2018-12-19T05:08:30.197Z,15.66
2018-12-19T05:13:39.714Z,15.29
2018-12-19T05:18:49.275Z,15.15
2018-12-19T05:23:58.884Z,15.73
2018-12-19T05:25:34.154Z,15.60
2018-12-19T05:30:33.440Z,14.76
2018-12-19T05:35:41.764Z,15.25
2018-12-19T05:40:51.155Z,16.36
2018-12-19T05:46:00.720Z,16.72
2018-12-19T05:51:10.157Z,15.78
2018-12-19T05:56:18.290Z,17.86
2018-12-19T06:01:27.566Z,17.52
2018-12-19T06:06:36.997Z,17.90
2018-12-19T06:11:46.328Z,17.79
2018-12-19T06:16:55.829Z,17.24
2018-12-19T06:22:05.176Z,17.47
2018-12-19T06:27:14.965Z,17.21
2018-12-19T06:32:24.417Z,17.48
2018-12-19T06:37:33.852Z,18.01
2018-12-19T06:42:47.350Z,18.71
2018-12-19T06:47:46.976Z,18.05
2018-12-19T06:52:56.337Z,18.56
2018-12-19T06:58:05.915Z,17.80
2018-12-19T07:03:15.233Z,18.14
2018-12-19T07:08:25.017Z,17.19
2018-12-19T07:13:34.427Z,17.98
2018-12-19T07:18:44.006Z,17.57
2018-12-19T07:23:53.240Z,16.76
2018-12-19T07:29:02.897Z,16.84
2018-12-19T07:34:12.307Z,17.08
2018-12-19T07:39:22.023Z,16.68
2018-12-19T07:44:31.485Z,17.13
2018-12-19T07:49:41.441Z,18.02
2018-12-19T07:54:50.884Z,17.04
2018-12-19T08:00:00.759Z,17.87
2018-12-19T08:05:10.029Z,19.27
2018-12-19T08:10:19.608Z,18.13
2018-12-19T08:15:28.851Z,19.06
2018-12-19T08:20:38.517Z,18.54
2018-12-19T08:25:47.962Z,18.62
2018-12-19T08:30:57.467Z,18.27
2018-12-19T08:36:06.901Z,18.42
2018-12-19T08:41:16.420Z,18.95
2018-12-19T08:46:25.665Z,21.29
2018-12-19T08:51:35.416Z,19.99
2018-12-19T08:56:44.751Z,19.41
2018-12-19T09:01:54.079Z,19.38
2018-12-19T09:07:03.397Z,18.98
2018-12-19T09:12:13.074Z,22.54
2018-12-19T09:17:22.332Z,21.55
2018-12-19T09:22:31.797Z,19.93
2018-12-19T09:27:41.197Z,19.64
2018-12-19T09:32:50.616Z,19.34
2018-12-19T09:37:59.951Z,19.77
2018-12-19T09:43:09.620Z,19.53
2018-12-19T09:48:18.969Z,18.87
2018-12-19T09:53:28.491Z,19.90
2018-12-19T09:58:37.994Z,19.34
2018-12-19T10:03:47.794Z,19.08
2018-12-19T10:08:57.106Z,18.97
2018-12-19T10:14:06.615Z,19.01
2018-12-19T10:19:15.965Z,18.50
2018-12-19T10:24:25.556Z,19.17
2018-12-19T10:29:34.937Z,18.87
2018-12-19T10:34:44.548Z,20.37
2018-12-19T10:39:53.851Z,23.81
2018-12-19T10:45:03.650Z,28.50
2018-12-19T10:50:12.959Z,26.48
2018-12-19T10:55:22.716Z,23.73
2018-12-19T11:00:32.110Z,22.65
2018-12-19T11:05:41.915Z,21.94
2018-12-19T11:10:51.322Z,26.03
2018-12-19T11:16:00.978Z,23.74
2018-12-19T11:21:08.872Z,22.72
2018-12-19T11:26:18.492Z,22.19
2018-12-19T11:31:32.913Z,22.32
2018-12-19T11:36:32.402Z,20.49
2018-12-19T11:41:41.907Z,21.36
2018-12-19T11:46:51.568Z,20.75
2018-12-19T11:52:00.897Z,21.32
2018-12-19T11:57:10.640Z,21.05
2018-12-19T12:02:20.066Z,20.28
2018-12-19T12:07:29.827Z,20.18
2018-12-19T12:12:39.172Z,20.19
2018-12-19T12:17:48.712Z,20.39
2018-12-19T12:22:58.070Z,20.18
2018-12-19T12:28:07.577Z,19.61
2018-12-19T12:33:16.908Z,19.87
2018-12-19T12:38:26.482Z,19.52
2018-12-19T12:43:35.829Z,19.74
2018-12-19T12:48:45.570Z,19.70
2018-12-19T12:53:54.841Z,19.32
2018-12-19T12:59:06.138Z,18.77
2018-12-19T13:04:05.203Z,19.61
2018-12-19T13:09:14.672Z,18.76
2018-12-19T13:14:24.103Z,19.02
2018-12-19T13:19:33.570Z,19.28
2018-12-19T13:24:42.875Z,18.49
2018-12-19T13:29:52.352Z,18.67
2018-12-19T13:35:01.640Z,23.61
2018-12-19T13:40:11.078Z,25.27
2018-12-19T13:45:20.301Z,25.29
2018-12-19T13:50:30.093Z,23.64
2018-12-19T13:55:39.478Z,23.54
2018-12-19T14:00:49.021Z,22.84
2018-12-19T14:05:58.447Z,21.61
2018-12-19T14:11:08.328Z,22.08
2018-12-19T14:16:18.262Z,21.90
2018-12-19T14:21:28.006Z,22.73
2018-12-19T14:26:37.321Z,23.63
2018-12-19T14:31:46.974Z,22.61
2018-12-19T14:37:00.495Z,22.31
2018-12-19T14:41:58.587Z,23.36
2018-12-19T14:47:08.077Z,27.45
2018-12-19T14:52:16.222Z,25.37
2018-12-19T14:57:25.543Z,25.07
2018-12-19T15:02:33.690Z,23.36
2018-12-19T15:07:42.948Z,43.05
2018-12-19T15:12:52.716Z,38.56
2018-12-19T15:18:02.113Z,36.54
2018-12-19T15:23:11.717Z,34.60
2018-12-19T15:28:21.026Z,33.48
2018-12-19T15:33:30.614Z,32.21
2018-12-19T15:38:39.977Z,31.27
2018-12-19T15:43:49.621Z,30.55
2018-12-19T15:48:59.056Z,31.06
2018-12-19T15:54:08.575Z,32.36
2018-12-19T15:59:17.815Z,31.18
2018-12-19T16:04:27.421Z,29.32
2018-12-19T16:09:36.904Z,28.98
2018-12-19T16:14:46.403Z,28.07
2018-12-19T16:19:55.848Z,27.74
2018-12-19T16:25:05.360Z,30.36
2018-12-19T16:42:03.522Z,28.70
2018-12-19T16:47:02.632Z,27.68
2018-12-19T16:48:54.394Z,27.90
2018-12-19T16:53:53.723Z,25.56
2018-12-19T17:01:12.634Z,28.62
2018-12-19T17:06:11.867Z,25.56
2018-12-19T17:08:22.410Z,26.84
2018-12-19T17:10:28.330Z,26.10
2018-12-19T17:15:37.820Z,24.95
2018-12-19T17:22:47.508Z,25.98
2018-12-19T17:27:37.799Z,25.42
2018-12-19T17:36:31.994Z,23.84
2018-12-19T17:44:29.326Z,23.85
2018-12-19T17:49:28.620Z,22.52
2018-12-19T17:54:38.092Z,23.05
2018-12-19T17:59:47.838Z,22.06
2018-12-19T18:04:57.341Z,22.57
2018-12-19T18:10:06.926Z,39.90
2018-12-19T18:15:16.267Z,40.42
2018-12-19T18:20:26.010Z,36.51
2018-12-19T18:25:35.498Z,34.99
2018-12-19T18:30:45.282Z,38.47
2018-12-19T18:35:55.133Z,36.62
2018-12-19T18:41:05.173Z,32.87
2018-12-19T18:46:04.298Z,31.88
2018-12-19T18:49:40.990Z,37.15
2018-12-19T18:52:41.469Z,38.49
2018-12-19T18:55:09.711Z,35.55
2018-12-19T19:00:08.857Z,30.64
2018-12-19T19:05:18.466Z,27.50
2018-12-19T19:10:28.152Z,24.54
2018-12-19T19:15:37.560Z,23.14
2018-12-19T19:20:51.990Z,22.54
2018-12-19T19:25:51.342Z,21.69
2018-12-19T19:31:00.760Z,20.89
2018-12-19T19:36:10.361Z,20.14
2018-12-19T19:41:19.972Z,19.85
2018-12-19T19:46:29.661Z,19.73
2018-12-19T19:51:39.200Z,19.50
2018-12-19T19:56:48.734Z,18.89
2018-12-19T20:01:58.006Z,18.25
2018-12-19T20:07:07.501Z,18.21
2018-12-19T20:12:16.990Z,18.39
2018-12-19T20:17:26.750Z,18.34
2018-12-19T20:22:36.199Z,18.27
2018-12-19T20:27:45.870Z,17.86
2018-12-19T20:32:55.156Z,17.92
2018-12-19T20:38:04.795Z,17.19
2018-12-19T20:43:14.150Z,17.79
2018-12-19T20:48:23.731Z,17.26
2018-12-19T20:53:33.095Z,17.08
2018-12-19T20:58:45.407Z,16.83
2018-12-19T21:08:03.374Z,16.94
2018-12-19T21:11:38.987Z,16.10
2018-12-19T21:14:01.714Z,16.23
2018-12-19T21:19:02.073Z,16.44
2018-12-19T21:22:10.703Z,16.04
2018-12-19T21:27:00.992Z,16.08
2018-12-19T21:32:01.751Z,15.22
2018-12-19T21:37:02.190Z,16.79
2018-12-19T21:40:59.328Z,15.95
2018-12-19T21:44:50.526Z,15.84
2018-12-19T21:49:51.164Z,17.06
2018-12-19T21:54:51.885Z,17.06
2018-12-19T21:59:52.065Z,16.30
2018-12-19T22:04:52.865Z,17.01
2018-12-19T22:09:53.276Z,15.99
2018-12-19T22:14:53.876Z,15.78
2018-12-19T22:19:54.363Z,16.63
2018-12-19T22:24:55.347Z,16.09
2018-12-19T22:29:56.009Z,15.83
2018-12-19T22:34:56.509Z,15.53
2018-12-19T22:39:57.019Z,15.24
2018-12-19T22:44:58.110Z,15.20
2018-12-19T22:49:58.645Z,14.74
2018-12-19T22:54:59.128Z,14.95
2018-12-19T22:59:59.440Z,15.18
2018-12-19T23:04:59.077Z,15.10
2018-12-19T23:10:13.517Z,14.72
2018-12-19T23:15:14.314Z,14.80
2018-12-19T23:20:15.133Z,15.09
2018-12-19T23:25:15.447Z,14.86
2018-12-19T23:30:15.840Z,14.91
2018-12-19T23:35:16.209Z,14.63
2018-12-19T23:40:16.510Z,14.52
2018-12-19T23:45:17.383Z,14.68
2018-12-19T23:50:17.504Z,14.42
2018-12-19T23:55:18.062Z,14.41
